CheckWX is a tool to help pilots better visualize weather data.  It is not intended as a substitute for an official pre-flight weather briefing.

18:19:34 UTC

EGPE METAR
Inverness Airport
Inverness, United Kingdom
Current

30 mins ago

EGPE 241750Z 09016KT 9999 FEW010 BKN024 12/08 Q0996
Observed
Apr-24 @ 17:50 UTC
Wind
  • 090° at 16 KTS
Visibility
10,000+ meters
Flight Rules
MVFR
Cloud Levels
  • Few at 1,000' AGL
  • Broken at 2,400' AGL
Temperature
12°C / 54°F
Dewpoint
C / 46°F
Humidity
77%
Altimeter
29.41" Hg
Pressure
995.92 hPa
Previous

60 mins ago

EGPE 241720Z 08016KT 9999 FEW010 BKN024 13/08 Q0996
Observed
Apr-24 @ 17:20 UTC
Wind
  • 080° at 16 KTS
Visibility
10,000+ meters
Flight Rules
MVFR
Cloud Levels
  • Few at 1,000' AGL
  • Broken at 2,400' AGL
Temperature
13°C / 55°F
Dewpoint
C / 46°F
Humidity
72%
Altimeter
29.41" Hg
Pressure
995.92 hPa
Previous

1 hour ago

EGPE 241650Z 09013KT 9999 FEW010 BKN026 13/08 Q0996
Observed
Apr-24 @ 16:50 UTC
Wind
  • 090° at 13 KTS
Visibility
10,000+ meters
Flight Rules
MVFR
Cloud Levels
  • Few at 1,000' AGL
  • Broken at 2,600' AGL
Temperature
13°C / 55°F
Dewpoint
C / 46°F
Humidity
72%
Altimeter
29.41" Hg
Pressure
995.92 hPa